Terminal Aerodrome Forecast
Issued by NWS Milwaukee/Sullivan, WI

Home | Current Version | Previous Version | Text Only | Print | Product List | Glossary On
Versions: 1 2 3 4 5 6 7 8 9 10 11 12 13 14 15 16 17 18 19 20 21 22 23 24 25 26 27 28 29 30 31 32 33 34 35 36 37 38 39
000
FTUS43 KMKX 261742 CCA
TAFMSN
TAF COR
KMSN 261742Z 2618/2718 25007KT P6SM VCSH SCT060 BKN150
     FM262000 28008KT P6SM VCSH SCT030 BKN070
     FM270000 30006KT P6SM SCT015 OVC035
     FM271300 31007KT P6SM SCT250=

USA.gov is the U.S. government's official web portal to all federal, state and local government web resources and services.